createdAt,value
2022-10-11T00:01:04.154Z,11.20
2022-10-11T00:03:32.529Z,11.20
2022-10-11T00:06:03.426Z,11.20
2022-10-11T00:08:32.203Z,11.10
2022-10-11T00:11:01.454Z,11.10
2022-10-11T00:13:31.365Z,11.10
2022-10-11T00:15:59.881Z,11.10
2022-10-11T00:18:28.538Z,11.00
2022-10-11T00:21:04.549Z,11.00
2022-10-11T00:23:33.215Z,11.00
2022-10-11T00:26:03.634Z,10.90
2022-10-11T00:28:34.239Z,10.90
2022-10-11T00:31:03.046Z,10.80
2022-10-11T00:33:31.613Z,10.80
2022-10-11T00:36:02.810Z,10.80
2022-10-11T00:38:32.054Z,10.80
2022-10-11T00:41:01.130Z,10.80
2022-10-11T00:43:32.609Z,10.80
2022-10-11T00:46:09.068Z,10.70
2022-10-11T00:48:42.590Z,10.70
2022-10-11T00:51:17.682Z,10.60
2022-10-11T00:53:48.250Z,10.60
2022-10-11T00:56:22.260Z,10.70
2022-10-11T00:58:50.903Z,10.60
2022-10-11T01:01:20.615Z,10.60
2022-10-11T01:03:51.075Z,10.60
2022-10-11T01:06:19.286Z,10.60
2022-10-11T01:08:48.252Z,10.60
2022-10-11T01:11:22.586Z,10.60
2022-10-11T01:14:07.499Z,10.60
2022-10-11T01:16:43.854Z,10.60
2022-10-11T01:19:30.285Z,10.60
2022-10-11T01:22:13.137Z,10.50
2022-10-11T01:25:06.761Z,10.50
2022-10-11T01:28:09.955Z,10.50
2022-10-11T01:30:40.727Z,10.50
2022-10-11T01:33:19.971Z,10.50
2022-10-11T01:35:57.313Z,10.50
2022-10-11T01:38:31.456Z,10.50
2022-10-11T01:41:04.484Z,10.50
2022-10-11T01:43:33.831Z,10.50
2022-10-11T01:46:05.194Z,10.50
2022-10-11T01:48:33.799Z,10.50
2022-10-11T01:51:04.319Z,10.50
2022-10-11T01:53:58.830Z,10.40
2022-10-11T01:56:53.281Z,10.40
2022-10-11T01:59:35.876Z,10.50
2022-10-11T02:02:18.391Z,10.50
2022-10-11T02:04:54.739Z,10.50
2022-10-11T02:07:28.466Z,10.50
2022-10-11T02:10:01.580Z,10.60
2022-10-11T02:12:34.891Z,10.60
2022-10-11T02:15:09.003Z,10.60
2022-10-11T02:17:43.155Z,10.60
2022-10-11T02:20:19.518Z,10.60
2022-10-11T02:22:51.172Z,10.60
2022-10-11T02:25:24.772Z,10.60
2022-10-11T02:27:58.344Z,10.60
2022-10-11T02:30:26.666Z,10.60
2022-10-11T02:32:58.561Z,10.60
2022-10-11T02:35:30.634Z,10.60
2022-10-11T02:38:06.838Z,10.50
2022-10-11T02:40:38.587Z,10.60
2022-10-11T02:43:11.992Z,10.60
2022-10-11T02:45:43.126Z,10.60
2022-10-11T02:48:13.815Z,10.60
2022-10-11T02:50:43.378Z,10.70
2022-10-11T02:53:11.850Z,10.70
2022-10-11T02:55:40.142Z,10.60
2022-10-11T02:58:08.317Z,10.60
2022-10-11T03:00:36.686Z,10.60
2022-10-11T03:03:05.059Z,10.70
2022-10-11T03:05:40.549Z,10.60
2022-10-11T03:08:10.051Z,10.60
2022-10-11T03:10:39.433Z,10.60
2022-10-11T03:13:07.740Z,10.60
2022-10-11T03:15:36.289Z,10.60
2022-10-11T03:18:04.687Z,10.60
2022-10-11T03:20:34.743Z,10.60
2022-10-11T03:23:02.899Z,10.60
2022-10-11T03:25:31.185Z,10.70
2022-10-11T03:27:59.446Z,10.70
2022-10-11T03:30:27.996Z,10.70
2022-10-11T03:32:56.150Z,10.70
2022-10-11T03:35:24.771Z,10.70
2022-10-11T03:37:54.289Z,10.70
2022-10-11T03:40:22.491Z,10.70
2022-10-11T03:42:50.884Z,10.80
2022-10-11T03:45:19.315Z,10.80
2022-10-11T03:47:47.502Z,10.80
2022-10-11T03:50:15.799Z,10.80
2022-10-11T03:52:44.686Z,10.80
2022-10-11T03:55:14.303Z,10.80
2022-10-11T03:57:42.488Z,10.90
2022-10-11T04:00:11.383Z,10.90
2022-10-11T04:02:39.597Z,10.90
2022-10-11T04:05:08.475Z,10.90
2022-10-11T04:07:36.771Z,10.90
2022-10-11T04:10:05.531Z,10.90
2022-10-11T04:12:35.439Z,10.90
2022-10-11T04:15:03.664Z,10.90
2022-10-11T04:17:31.908Z,10.90
2022-10-11T04:20:00.157Z,10.90
2022-10-11T04:22:28.364Z,10.90
2022-10-11T04:24:56.601Z,10.90
2022-10-11T04:27:24.841Z,10.90
2022-10-11T04:29:54.385Z,10.90
2022-10-11T04:32:22.883Z,10.90
2022-10-11T04:34:51.396Z,10.80
2022-10-11T04:37:19.739Z,10.80
2022-10-11T04:39:47.933Z,10.70
2022-10-11T04:42:16.423Z,10.70
2022-10-11T04:44:44.637Z,10.70
2022-10-11T04:47:15.446Z,10.70
2022-10-11T04:49:43.648Z,10.70
2022-10-11T04:52:11.959Z,10.70
2022-10-11T04:54:40.192Z,10.70
2022-10-11T04:57:08.420Z,10.80
2022-10-11T04:59:36.595Z,10.80
2022-10-11T05:02:07.238Z,10.80
2022-10-11T05:04:36.863Z,10.80
2022-10-11T05:07:06.547Z,10.80
2022-10-11T05:09:34.763Z,10.90
2022-10-11T05:12:03.115Z,10.90
2022-10-11T05:14:31.305Z,10.90
2022-10-11T05:16:59.559Z,10.90
2022-10-11T05:19:27.773Z,10.90
2022-10-11T05:21:57.531Z,10.90
2022-10-11T05:24:25.780Z,10.90
2022-10-11T05:26:53.983Z,10.90
2022-10-11T05:29:22.266Z,10.90
2022-10-11T05:31:50.474Z,10.90
2022-10-11T05:34:18.722Z,10.90
2022-10-11T05:36:47.027Z,10.90
2022-10-11T05:39:16.575Z,10.90
2022-10-11T05:41:44.806Z,10.90
2022-10-11T05:44:12.940Z,10.90
2022-10-11T05:46:41.419Z,10.90
2022-10-11T05:49:09.626Z,11.00
2022-10-11T05:51:38.251Z,11.10
2022-10-11T05:54:06.954Z,11.10
2022-10-11T05:56:38.088Z,11.10
2022-10-11T05:59:07.389Z,11.20
2022-10-11T06:01:35.659Z,11.20
2022-10-11T06:04:04.897Z,11.20
2022-10-11T06:06:33.188Z,11.20
2022-10-11T06:09:01.388Z,11.30
2022-10-11T06:11:29.830Z,11.30
2022-10-11T06:14:02.071Z,11.40
2022-10-11T06:17:03.438Z,11.40
2022-10-11T06:19:31.713Z,11.50
2022-10-11T06:21:59.864Z,11.60
2022-10-11T06:24:28.217Z,11.60
2022-10-11T06:26:56.704Z,11.70
2022-10-11T06:29:26.303Z,11.80
2022-10-11T06:31:54.513Z,11.90
2022-10-11T06:34:22.915Z,11.90
2022-10-11T06:36:51.124Z,12.00
2022-10-11T06:39:19.353Z,12.10
2022-10-11T06:41:47.591Z,12.20
2022-10-11T06:44:16.842Z,12.30
2022-10-11T06:46:46.554Z,12.40
2022-10-11T06:49:18.235Z,12.50
2022-10-11T06:51:49.166Z,12.60
2022-10-11T06:54:17.423Z,12.70
2022-10-11T06:56:45.847Z,12.90
2022-10-11T06:59:15.104Z,13.00
2022-10-11T07:01:44.057Z,13.20
2022-10-11T07:04:13.745Z,13.40
2022-10-11T07:06:42.943Z,13.60
2022-10-11T07:09:11.410Z,13.70
2022-10-11T07:11:39.570Z,13.80
2022-10-11T07:14:08.621Z,13.90
2022-10-11T07:16:37.647Z,13.80
2022-10-11T07:19:08.321Z,13.90
2022-10-11T07:21:38.184Z,14.00
2022-10-11T07:24:07.366Z,14.10
2022-10-11T07:26:38.635Z,14.20
2022-10-11T07:29:08.139Z,14.30
2022-10-11T07:31:41.171Z,14.40
2022-10-11T07:34:10.413Z,14.40
2022-10-11T07:36:40.115Z,14.50
2022-10-11T07:39:09.909Z,14.60
2022-10-11T07:41:43.141Z,14.60
2022-10-11T07:44:13.861Z,14.70
2022-10-11T07:46:42.155Z,14.80
2022-10-11T07:49:10.314Z,14.90
2022-10-11T07:51:40.032Z,15.00
2022-10-11T07:54:08.289Z,15.10
2022-10-11T07:56:38.034Z,15.20
2022-10-11T07:59:06.520Z,15.20
2022-10-11T08:01:34.891Z,15.20
2022-10-11T08:04:03.173Z,15.30
2022-10-11T08:06:32.862Z,15.30
2022-10-11T08:09:03.156Z,15.30
2022-10-11T08:11:36.181Z,15.30
2022-10-11T08:14:08.741Z,15.30
2022-10-11T08:16:37.696Z,15.40
2022-10-11T08:19:07.298Z,15.40
2022-10-11T08:21:36.054Z,15.40
2022-10-11T08:24:07.345Z,15.40
2022-10-11T08:26:36.119Z,15.40
2022-10-11T08:29:05.293Z,15.50
2022-10-11T08:31:35.146Z,15.50
2022-10-11T08:34:03.366Z,15.50
2022-10-11T08:36:31.583Z,15.50
2022-10-11T08:38:59.882Z,15.70
2022-10-11T08:41:40.200Z,16.10
2022-10-11T08:44:24.461Z,16.70
2022-10-11T08:47:00.643Z,17.20
2022-10-11T08:49:32.566Z,17.50
2022-10-11T08:52:04.727Z,17.60
2022-10-11T08:54:43.133Z,17.70
2022-10-11T08:57:16.925Z,17.80
2022-10-11T08:59:50.396Z,17.80
2022-10-11T09:03:02.953Z,18.10
2022-10-11T09:05:31.784Z,18.40
2022-10-11T09:08:07.605Z,18.80
2022-10-11T09:10:58.319Z,19.10
2022-10-11T09:13:54.631Z,19.30
2022-10-11T09:16:36.571Z,19.30
2022-10-11T09:19:27.819Z,19.10
2022-10-11T09:22:06.927Z,18.90
2022-10-11T09:24:49.243Z,18.70
2022-10-11T09:27:29.085Z,18.60
2022-10-11T09:30:16.516Z,18.40
2022-10-11T09:32:48.894Z,18.30
2022-10-11T09:35:20.271Z,18.20
2022-10-11T09:37:57.082Z,18.10
2022-10-11T09:40:44.468Z,18.00
2022-10-11T09:43:12.859Z,17.80
2022-10-11T09:45:49.235Z,17.90
2022-10-11T09:48:21.574Z,18.10
2022-10-11T09:50:51.125Z,18.10
2022-10-11T09:53:53.560Z,18.00
2022-10-11T09:56:25.358Z,17.90
2022-10-11T09:59:20.234Z,17.80
2022-10-11T10:01:50.260Z,17.80
2022-10-11T10:04:18.628Z,18.00
2022-10-11T10:06:47.229Z,18.20
2022-10-11T10:09:26.692Z,18.50
2022-10-11T10:11:55.804Z,18.90
2022-10-11T10:14:26.519Z,19.30
2022-10-11T10:17:03.721Z,19.60
2022-10-11T10:19:44.522Z,19.80
2022-10-11T10:22:20.755Z,19.70
2022-10-11T10:24:50.293Z,19.60
2022-10-11T10:27:22.205Z,19.60
2022-10-11T10:30:18.266Z,19.70
2022-10-11T10:32:55.636Z,19.70
2022-10-11T10:35:31.155Z,19.60
2022-10-11T10:38:07.757Z,19.50
2022-10-11T10:40:42.350Z,19.40
2022-10-11T10:43:16.573Z,19.30
2022-10-11T10:46:17.472Z,19.50
2022-10-11T10:51:55.241Z,20.00
2022-10-11T10:54:38.816Z,19.90
2022-10-11T10:57:15.826Z,19.90
2022-10-11T11:00:03.496Z,19.80
2022-10-11T11:02:41.493Z,19.60
2022-10-11T11:05:22.189Z,19.50
2022-10-11T11:07:55.475Z,19.40
2022-10-11T11:10:26.287Z,19.30
2022-10-11T11:13:07.004Z,19.30
2022-10-11T11:15:40.142Z,19.10
2022-10-11T11:18:28.866Z,18.90
2022-10-11T11:21:14.291Z,18.70
2022-10-11T11:23:47.418Z,18.60
2022-10-11T11:26:24.248Z,18.40
2022-10-11T11:29:07.324Z,18.30
2022-10-11T11:31:48.815Z,18.20
2022-10-11T11:34:23.431Z,18.20
2022-10-11T11:36:56.449Z,18.10
2022-10-11T11:39:26.861Z,18.20
2022-10-11T11:42:02.340Z,18.30
2022-10-11T11:44:33.086Z,18.30
2022-10-11T11:47:08.144Z,18.30
2022-10-11T11:49:39.325Z,18.20
2022-10-11T11:52:15.541Z,18.10
2022-10-11T11:54:51.831Z,18.00
2022-10-11T11:57:29.573Z,18.00
2022-10-11T12:00:03.292Z,17.90
2022-10-11T12:02:46.073Z,17.90
2022-10-11T12:05:17.842Z,17.90
2022-10-11T12:07:58.188Z,17.90
2022-10-11T12:10:36.646Z,18.00
2022-10-11T12:13:20.269Z,18.00
2022-10-11T12:15:59.232Z,18.10
2022-10-11T12:18:29.197Z,18.10
2022-10-11T12:21:06.524Z,18.30
2022-10-11T12:23:48.335Z,18.50
2022-10-11T12:26:41.731Z,18.70
2022-10-11T12:29:28.972Z,18.90
2022-10-11T12:32:57.923Z,19.10
2022-10-11T12:36:05.706Z,19.20
2022-10-11T12:38:39.789Z,19.40
2022-10-11T12:41:39.018Z,19.60
2022-10-11T12:44:21.627Z,19.80
2022-10-11T12:47:21.704Z,19.80
2022-10-11T12:50:02.617Z,19.90
2022-10-11T12:52:40.379Z,19.90
2022-10-11T12:55:29.115Z,19.90
2022-10-11T12:58:25.624Z,20.00
2022-10-11T13:01:22.953Z,20.10
2022-10-11T13:04:04.452Z,20.20
2022-10-11T13:06:35.148Z,20.20
2022-10-11T13:09:07.888Z,20.20
2022-10-11T13:11:39.825Z,20.20
2022-10-11T13:14:12.113Z,20.10
2022-10-11T13:17:07.233Z,20.00
2022-10-11T13:19:37.991Z,19.90
2022-10-11T13:22:16.348Z,19.90
2022-10-11T13:24:44.915Z,19.80
2022-10-11T13:27:20.938Z,19.70
2022-10-11T13:29:52.993Z,19.60
2022-10-11T13:32:23.888Z,19.50
2022-10-11T13:34:57.740Z,19.50
2022-10-11T13:37:29.328Z,19.30
2022-10-11T13:39:58.601Z,19.20
2022-10-11T13:42:29.991Z,19.00
2022-10-11T13:45:00.408Z,18.90
2022-10-11T13:47:30.998Z,18.80
2022-10-11T13:50:12.294Z,18.70
2022-10-11T13:52:54.416Z,18.70
2022-10-11T13:55:31.531Z,18.60
2022-10-11T13:58:04.281Z,18.50
2022-10-11T14:00:37.653Z,18.40
2022-10-11T14:03:17.622Z,18.30
2022-10-11T14:05:55.024Z,18.20
2022-10-11T14:08:31.575Z,18.20
2022-10-11T14:11:05.245Z,18.10
2022-10-11T14:13:37.675Z,17.90
2022-10-11T14:16:09.632Z,17.90
2022-10-11T14:18:49.067Z,17.70
2022-10-11T14:21:27.677Z,17.70
2022-10-11T14:23:58.840Z,17.60
2022-10-11T14:26:28.128Z,17.60
2022-10-11T14:29:00.006Z,17.40
2022-10-11T14:31:32.157Z,17.30
2022-10-11T14:34:00.461Z,17.20
2022-10-11T14:36:28.750Z,17.10
2022-10-11T14:38:57.057Z,17.10
2022-10-11T14:41:25.394Z,17.00
2022-10-11T14:43:56.386Z,16.90
2022-10-11T14:46:27.163Z,16.80
2022-10-11T14:48:57.007Z,16.70
2022-10-11T14:51:30.239Z,16.60
2022-10-11T14:53:59.351Z,16.60
2022-10-11T14:56:27.622Z,16.60
2022-10-11T14:58:55.910Z,16.50
2022-10-11T15:01:24.277Z,16.40
2022-10-11T15:03:52.911Z,16.30
2022-10-11T15:06:25.706Z,16.20
2022-10-11T15:08:54.401Z,16.10
2022-10-11T15:11:24.147Z,16.00
2022-10-11T15:13:52.349Z,15.90
2022-10-11T15:16:22.266Z,15.80
2022-10-11T15:18:52.063Z,15.70
2022-10-11T15:21:23.656Z,15.60
2022-10-11T15:23:53.325Z,15.50
2022-10-11T15:26:24.091Z,15.40
2022-10-11T15:28:53.710Z,15.30
2022-10-11T15:31:22.466Z,15.30
2022-10-11T15:33:50.889Z,15.20
2022-10-11T15:36:23.886Z,15.00
2022-10-11T15:38:52.468Z,15.00
2022-10-11T15:41:21.428Z,14.80
2022-10-11T15:43:50.520Z,14.70
2022-10-11T15:46:23.314Z,14.60
2022-10-11T15:48:53.349Z,14.50
2022-10-11T15:51:22.978Z,14.40
2022-10-11T15:53:51.261Z,14.30
2022-10-11T15:56:19.794Z,14.20
2022-10-11T15:58:48.155Z,14.10
2022-10-11T16:01:20.596Z,14.00
2022-10-11T16:03:50.129Z,13.90
2022-10-11T16:06:18.897Z,13.80
2022-10-11T16:08:48.817Z,13.70
2022-10-11T16:11:17.205Z,13.60
2022-10-11T16:13:45.597Z,13.60
2022-10-11T16:16:13.934Z,13.50
2022-10-11T16:18:42.249Z,13.40
2022-10-11T16:21:15.611Z,13.30
2022-10-11T16:23:43.800Z,13.20
2022-10-11T16:26:16.451Z,13.20
2022-10-11T16:28:44.969Z,13.10
2022-10-11T16:31:18.198Z,13.00
2022-10-11T16:33:46.841Z,12.90
2022-10-11T16:36:40.674Z,12.80
2022-10-11T16:39:13.006Z,12.70
2022-10-11T16:41:43.125Z,12.60
2022-10-11T16:44:14.104Z,12.60
2022-10-11T16:46:43.112Z,12.50
2022-10-11T16:49:11.317Z,12.50
2022-10-11T16:51:39.553Z,12.40
2022-10-11T16:54:08.275Z,12.30
2022-10-11T16:56:39.870Z,12.30
2022-10-11T16:59:09.990Z,12.30
2022-10-11T17:01:38.628Z,12.20
2022-10-11T17:04:07.420Z,12.20
2022-10-11T17:06:35.639Z,12.10
2022-10-11T17:09:04.276Z,12.10
2022-10-11T17:11:32.471Z,12.00
2022-10-11T17:14:02.158Z,11.90
2022-10-11T17:16:31.824Z,11.90
2022-10-11T17:19:00.110Z,11.90
2022-10-11T17:21:28.340Z,11.80
2022-10-11T17:23:56.588Z,11.80
2022-10-11T17:26:27.243Z,11.80
2022-10-11T17:28:55.925Z,11.70
2022-10-11T17:31:25.720Z,11.70
2022-10-11T17:33:55.678Z,11.60
2022-10-11T17:36:27.889Z,11.60
2022-10-11T17:38:56.166Z,11.50
2022-10-11T17:41:29.403Z,11.50
2022-10-11T17:44:01.253Z,11.50
2022-10-11T17:46:32.509Z,11.50
2022-10-11T17:49:04.899Z,11.40
2022-10-11T17:51:36.218Z,11.50
2022-10-11T17:54:06.204Z,11.40
2022-10-11T17:56:38.007Z,11.40
2022-10-11T17:59:07.345Z,11.40
2022-10-11T18:01:36.139Z,11.30
2022-10-11T18:04:07.100Z,11.30
2022-10-11T18:06:40.191Z,11.40
2022-10-11T18:09:08.508Z,11.40
2022-10-11T18:11:36.970Z,11.40
2022-10-11T18:14:05.868Z,11.40
2022-10-11T18:16:34.226Z,11.40
2022-10-11T18:19:06.279Z,11.30
2022-10-11T18:21:36.768Z,11.30
2022-10-11T18:24:10.859Z,11.30
2022-10-11T18:26:39.616Z,11.30
2022-10-11T18:29:08.147Z,11.30
2022-10-11T18:31:36.650Z,11.20
2022-10-11T18:34:08.440Z,11.20
2022-10-11T18:36:36.757Z,11.10
2022-10-11T18:39:08.316Z,11.10
2022-10-11T18:41:37.032Z,11.00
2022-10-11T18:44:07.731Z,11.00
2022-10-11T18:46:37.604Z,11.00
2022-10-11T18:49:07.151Z,10.90
2022-10-11T18:51:37.800Z,10.90
2022-10-11T18:54:07.034Z,10.80
2022-10-11T18:56:37.099Z,10.80
2022-10-11T18:59:07.140Z,10.80
2022-10-11T19:01:38.108Z,10.70
2022-10-11T19:04:09.580Z,10.70
2022-10-11T19:06:43.033Z,10.60
2022-10-11T19:09:13.153Z,10.50
2022-10-11T19:11:42.275Z,10.50
2022-10-11T19:14:14.531Z,10.40
2022-10-11T19:16:46.335Z,10.40
2022-10-11T19:19:16.006Z,10.40
2022-10-11T19:21:44.980Z,10.30
2022-10-11T19:24:13.314Z,10.40
2022-10-11T19:26:42.986Z,10.30
2022-10-11T19:29:14.753Z,10.30
2022-10-11T19:31:44.806Z,10.30
2022-10-11T19:34:13.483Z,10.30
2022-10-11T19:36:43.912Z,10.20
2022-10-11T19:39:13.064Z,10.20
2022-10-11T19:41:41.498Z,10.20
2022-10-11T19:44:10.108Z,10.10
2022-10-11T19:46:51.107Z,10.10
2022-10-11T19:49:22.740Z,10.10
2022-10-11T19:51:52.842Z,10.10
2022-10-11T19:54:21.240Z,10.10
2022-10-11T19:56:49.599Z,10.00
2022-10-11T19:59:18.286Z,10.00
2022-10-11T20:01:51.256Z,10.00
2022-10-11T20:04:51.066Z,9.90
2022-10-11T20:07:10.312Z,9.90
2022-10-11T20:09:38.461Z,9.90
2022-10-11T20:12:07.126Z,9.80
2022-10-11T20:14:35.297Z,9.80
2022-10-11T20:17:03.478Z,9.80
2022-10-11T20:19:32.019Z,9.70
2022-10-11T20:22:00.900Z,9.70
2022-10-11T20:24:33.633Z,9.70
2022-10-11T20:27:03.730Z,9.60
2022-10-11T20:29:31.914Z,9.60
2022-10-11T20:32:00.191Z,9.50
2022-10-11T20:34:28.863Z,9.50
2022-10-11T20:36:57.139Z,9.50
2022-10-11T20:39:25.530Z,9.50
2022-10-11T20:41:55.075Z,9.40
2022-10-11T20:44:23.342Z,9.40
2022-10-11T20:46:51.547Z,9.40
2022-10-11T20:49:20.766Z,9.30
2022-10-11T20:51:49.315Z,9.40
2022-10-11T20:54:18.079Z,9.30
2022-10-11T20:56:46.325Z,9.30
2022-10-11T20:59:15.887Z,9.20
2022-10-11T21:01:44.239Z,9.20
2022-10-11T21:04:18.859Z,9.20
2022-10-11T21:06:48.009Z,9.20
2022-10-11T21:09:19.200Z,9.20
2022-10-11T21:11:47.454Z,9.20
2022-10-11T21:14:17.305Z,9.10
2022-10-11T21:16:45.506Z,9.10
2022-10-11T21:19:17.059Z,9.10
2022-10-11T21:21:51.127Z,9.10
2022-10-11T21:24:48.565Z,9.00
2022-10-11T21:27:16.896Z,9.00
2022-10-11T21:29:46.439Z,8.90
2022-10-11T21:32:14.750Z,9.00
2022-10-11T21:34:42.935Z,8.90
2022-10-11T21:37:11.237Z,8.90
2022-10-11T21:39:39.389Z,8.90
2022-10-11T21:42:07.811Z,8.80
2022-10-11T21:44:36.877Z,8.90
2022-10-11T21:47:07.668Z,8.80
2022-10-11T21:49:38.287Z,8.70
2022-10-11T21:52:07.655Z,8.70
2022-10-11T21:54:35.934Z,8.70
2022-10-11T21:57:04.179Z,8.70
2022-10-11T21:59:32.368Z,8.70
2022-10-11T22:02:02.019Z,8.60
2022-10-11T22:04:31.996Z,8.60
2022-10-11T22:07:00.267Z,8.60
2022-10-11T22:09:29.842Z,8.60
2022-10-11T22:11:58.266Z,8.60
2022-10-11T22:14:26.860Z,8.50
2022-10-11T22:16:55.099Z,8.50
2022-10-11T22:19:23.487Z,8.50
2022-10-11T22:21:53.100Z,8.40
2022-10-11T22:24:21.277Z,8.40
2022-10-11T22:26:49.573Z,8.40
2022-10-11T22:29:17.777Z,8.40
2022-10-11T22:31:46.053Z,8.30
2022-10-11T22:34:14.299Z,8.30
2022-10-11T22:36:42.575Z,8.30
2022-10-11T22:39:14.736Z,8.30
2022-10-11T22:41:43.001Z,8.30
2022-10-11T22:44:12.586Z,8.30
2022-10-11T22:46:40.962Z,8.20
2022-10-11T22:49:09.126Z,8.20
2022-10-11T22:51:37.391Z,8.20
2022-10-11T22:54:06.138Z,8.20
2022-10-11T22:56:35.760Z,8.30
2022-10-11T22:59:04.546Z,8.30
2022-10-11T23:01:32.962Z,8.30
2022-10-11T23:04:01.173Z,8.30
2022-10-11T23:06:29.465Z,8.30
2022-10-11T23:08:57.670Z,8.30
2022-10-11T23:11:25.922Z,8.40
2022-10-11T23:13:55.752Z,8.40
2022-10-11T23:16:23.973Z,8.40
2022-10-11T23:18:53.757Z,8.40
2022-10-11T23:21:22.680Z,8.30
2022-10-11T23:23:53.430Z,8.40
2022-10-11T23:26:22.287Z,8.40
2022-10-11T23:28:57.434Z,8.40
2022-10-11T23:31:25.878Z,8.30
2022-10-11T23:33:54.824Z,8.30
2022-10-11T23:36:24.545Z,8.30
2022-10-11T23:38:54.159Z,8.30
2022-10-11T23:41:23.042Z,8.20
2022-10-11T23:43:51.302Z,8.20
2022-10-11T23:46:20.851Z,8.10
2022-10-11T23:48:49.423Z,8.10
2022-10-11T23:51:17.781Z,8.10
2022-10-11T23:53:46.038Z,8.10
2022-10-11T23:56:14.401Z,8.10
2022-10-11T23:58:42.643Z,8.10
